createdAt,value
2023-03-27T00:00:06.736Z,84.75
2023-03-27T00:01:06.703Z,84.86
2023-03-27T00:02:06.692Z,84.86
2023-03-27T00:03:06.756Z,85.06
2023-03-27T00:04:06.727Z,84.96
2023-03-27T00:05:06.634Z,85.17
2023-03-27T00:06:06.617Z,85.06
2023-03-27T00:07:06.642Z,85.28
2023-03-27T00:08:06.621Z,85.28
2023-03-27T00:09:06.615Z,85.38
2023-03-27T00:10:06.606Z,85.49
2023-03-27T00:11:06.618Z,85.59
2023-03-27T00:12:06.588Z,85.59
2023-03-27T00:13:06.615Z,85.59
2023-03-27T00:14:06.582Z,85.80
2023-03-27T00:15:06.618Z,85.69
2023-03-27T00:16:06.505Z,85.90
2023-03-27T00:17:06.510Z,85.90
2023-03-27T00:18:06.546Z,86.11
2023-03-27T00:19:06.486Z,86.11
2023-03-27T00:20:06.493Z,86.21
2023-03-27T00:21:06.503Z,86.11
2023-03-27T00:22:06.466Z,86.00
2023-03-27T00:23:06.520Z,85.90
2023-03-27T00:24:06.428Z,85.90
2023-03-27T00:25:06.428Z,86.00
2023-03-27T00:26:06.399Z,86.11
2023-03-27T00:27:06.424Z,86.32
2023-03-27T00:28:06.520Z,86.42
2023-03-27T00:29:06.368Z,86.42
2023-03-27T00:30:06.371Z,86.42
2023-03-27T00:31:06.409Z,86.46
2023-03-27T00:32:06.382Z,86.67
2023-03-27T00:33:06.640Z,86.57
2023-03-27T00:34:06.379Z,86.46
2023-03-27T00:35:06.332Z,86.46
2023-03-27T00:36:06.375Z,86.57
2023-03-27T00:37:06.307Z,86.67
2023-03-27T00:38:06.317Z,86.63
2023-03-27T00:39:06.264Z,86.57
2023-03-27T00:40:06.273Z,86.46
2023-03-27T00:41:06.261Z,86.35
2023-03-27T00:42:06.209Z,86.25
2023-03-27T00:43:06.239Z,86.25
2023-03-27T00:44:06.182Z,86.25
2023-03-27T00:45:06.233Z,86.25
2023-03-27T00:46:06.186Z,86.35
2023-03-27T00:47:06.243Z,86.46
2023-03-27T00:48:06.217Z,86.46
2023-03-27T00:49:06.189Z,86.67
2023-03-27T00:50:06.116Z,86.67
2023-03-27T00:51:06.115Z,86.67
2023-03-27T00:52:06.148Z,86.81
2023-03-27T00:53:06.170Z,86.91
2023-03-27T00:54:06.104Z,87.12
2023-03-27T00:55:06.140Z,87.12
2023-03-27T00:56:06.061Z,87.33
2023-03-27T00:57:06.081Z,87.33
2023-03-27T00:58:06.074Z,87.43
2023-03-27T00:59:06.020Z,87.75
2023-03-27T01:00:07.578Z,87.85
2023-03-27T01:01:06.100Z,87.85
2023-03-27T01:02:06.005Z,87.99
2023-03-27T01:03:06.109Z,88.06
2023-03-27T01:04:05.979Z,88.06
2023-03-27T01:05:05.949Z,88.10
2023-03-27T01:06:05.955Z,88.10
2023-03-27T01:07:05.964Z,88.20
2023-03-27T01:08:05.985Z,88.10
2023-03-27T01:09:05.960Z,88.10
2023-03-27T01:10:05.921Z,87.99
2023-03-27T01:11:05.909Z,88.10
2023-03-27T01:12:05.860Z,88.10
2023-03-27T01:13:05.922Z,88.10
2023-03-27T01:14:05.869Z,88.31
2023-03-27T01:15:05.852Z,88.52
2023-03-27T01:16:05.890Z,88.62
2023-03-27T01:17:05.862Z,88.83
2023-03-27T01:18:05.902Z,88.73
2023-03-27T01:19:05.795Z,88.83
2023-03-27T01:20:05.798Z,88.83
2023-03-27T01:21:05.786Z,88.87
2023-03-27T01:22:05.754Z,88.87
2023-03-27T01:23:05.794Z,89.08
2023-03-27T01:24:05.767Z,89.18
2023-03-27T01:25:05.736Z,89.18
2023-03-27T01:26:05.718Z,89.08
2023-03-27T01:27:05.713Z,89.08
2023-03-27T01:28:05.701Z,89.08
2023-03-27T01:29:05.761Z,89.08
2023-03-27T01:30:05.710Z,88.98
2023-03-27T01:31:05.717Z,88.98
2023-03-27T01:32:05.737Z,88.98
2023-03-27T01:33:05.742Z,89.08
2023-03-27T01:34:05.642Z,89.08
2023-03-27T01:35:05.645Z,89.08
2023-03-27T01:36:05.624Z,89.18
2023-03-27T01:37:05.595Z,89.39
2023-03-27T01:38:05.613Z,89.50
2023-03-27T01:39:05.580Z,89.50
2023-03-27T01:40:05.599Z,89.50
2023-03-27T01:41:05.566Z,89.39
2023-03-27T01:42:05.646Z,89.39
2023-03-27T01:43:05.581Z,89.39
2023-03-27T01:44:05.528Z,89.39
2023-03-27T01:45:05.523Z,89.39
2023-03-27T01:46:05.520Z,89.64
2023-03-27T01:47:05.508Z,89.54
2023-03-27T01:48:05.604Z,89.54
2023-03-27T01:49:05.501Z,89.54
2023-03-27T01:50:05.492Z,89.54
2023-03-27T01:51:05.490Z,89.54
2023-03-27T01:52:05.436Z,89.64
2023-03-27T01:53:05.481Z,89.85
2023-03-27T01:54:05.417Z,89.85
2023-03-27T01:55:05.426Z,89.85
2023-03-27T01:56:05.440Z,89.85
2023-03-27T01:57:05.428Z,89.85
2023-03-27T01:58:05.403Z,89.75
2023-03-27T01:59:05.351Z,89.75
2023-03-27T02:00:18.312Z,89.75
2023-03-27T02:01:05.651Z,89.85
2023-03-27T02:02:05.357Z,89.75
2023-03-27T02:03:05.365Z,89.75
2023-03-27T02:04:05.316Z,89.85
2023-03-27T02:05:05.353Z,89.95
2023-03-27T02:06:05.357Z,90.06
2023-03-27T02:07:05.276Z,90.06
2023-03-27T02:08:05.243Z,90.06
2023-03-27T02:09:05.401Z,89.85
2023-03-27T02:10:05.258Z,90.06
2023-03-27T02:11:05.234Z,90.16
2023-03-27T02:12:05.220Z,90.16
2023-03-27T02:13:05.202Z,90.16
2023-03-27T02:14:05.241Z,90.16
2023-03-27T02:15:23.135Z,90.16
2023-03-27T02:16:05.222Z,90.16
2023-03-27T02:17:05.151Z,90.16
2023-03-27T02:18:05.478Z,90.16
2023-03-27T02:19:05.146Z,90.06
2023-03-27T02:20:05.172Z,90.16
2023-03-27T02:21:05.110Z,90.16
2023-03-27T02:22:05.144Z,90.06
2023-03-27T02:23:05.116Z,90.06
2023-03-27T02:24:05.084Z,89.95
2023-03-27T02:25:05.156Z,90.06
2023-03-27T02:26:05.056Z,90.06
2023-03-27T02:27:05.072Z,90.00
2023-03-27T02:28:05.052Z,90.10
2023-03-27T02:29:05.008Z,90.00
2023-03-27T02:30:05.005Z,90.00
2023-03-27T02:31:05.416Z,90.00
2023-03-27T02:32:05.113Z,90.00
2023-03-27T02:33:05.075Z,90.10
2023-03-27T02:34:05.039Z,90.00
2023-03-27T02:35:04.946Z,90.10
2023-03-27T02:36:05.042Z,90.10
2023-03-27T02:37:04.977Z,90.41
2023-03-27T02:38:04.975Z,90.41
2023-03-27T02:39:04.942Z,90.52
2023-03-27T02:40:04.898Z,90.52
2023-03-27T02:41:04.892Z,90.41
2023-03-27T02:42:04.893Z,90.41
2023-03-27T02:43:04.911Z,90.52
2023-03-27T02:44:04.900Z,90.41
2023-03-27T02:45:04.844Z,90.41
2023-03-27T02:46:04.919Z,90.52
2023-03-27T02:47:04.844Z,90.31
2023-03-27T02:48:04.866Z,90.41
2023-03-27T02:49:04.837Z,90.31
2023-03-27T02:50:04.798Z,90.31
2023-03-27T02:51:04.789Z,90.31
2023-03-27T02:52:04.755Z,90.41
2023-03-27T02:53:04.835Z,90.31
2023-03-27T02:54:04.782Z,90.41
2023-03-27T02:55:04.813Z,90.20
2023-03-27T02:56:04.727Z,90.20
2023-03-27T02:57:04.780Z,90.31
2023-03-27T02:58:04.713Z,90.20
2023-03-27T02:59:04.712Z,90.10
2023-03-27T03:00:04.750Z,90.20
2023-03-27T03:01:04.690Z,90.62
2023-03-27T03:02:04.669Z,90.66
2023-03-27T03:03:04.705Z,90.72
2023-03-27T03:04:04.643Z,90.72
2023-03-27T03:05:04.647Z,90.62
2023-03-27T03:06:04.597Z,90.35
2023-03-27T03:07:04.666Z,90.66
2023-03-27T03:08:04.590Z,90.77
2023-03-27T03:09:04.623Z,90.66
2023-03-27T03:10:04.605Z,90.87
2023-03-27T03:11:04.573Z,90.77
2023-03-27T03:12:04.556Z,90.77
2023-03-27T03:13:04.543Z,90.97
2023-03-27T03:14:04.539Z,91.18
2023-03-27T03:15:04.573Z,91.08
2023-03-27T03:16:04.509Z,91.18
2023-03-27T03:17:04.590Z,91.29
2023-03-27T03:18:04.517Z,91.08
2023-03-27T03:19:04.476Z,91.18
2023-03-27T03:20:04.516Z,91.08
2023-03-27T03:21:04.469Z,91.08
2023-03-27T03:22:04.446Z,91.08
2023-03-27T03:23:04.457Z,91.08
2023-03-27T03:24:04.506Z,91.18
2023-03-27T03:25:04.428Z,91.18
2023-03-27T03:26:04.406Z,91.08
2023-03-27T03:27:04.392Z,91.08
2023-03-27T03:28:04.422Z,91.08
2023-03-27T03:29:04.378Z,91.18
2023-03-27T03:30:04.349Z,91.29
2023-03-27T03:31:04.709Z,91.29
2023-03-27T03:32:04.350Z,91.39
2023-03-27T03:33:04.438Z,91.39
2023-03-27T03:34:04.310Z,91.29
2023-03-27T03:35:05.002Z,91.08
2023-03-27T03:36:04.329Z,91.08
2023-03-27T03:37:04.290Z,90.97
2023-03-27T03:38:04.345Z,90.97
2023-03-27T03:39:04.238Z,91.18
2023-03-27T03:40:04.249Z,91.18
2023-03-27T03:41:04.280Z,91.08
2023-03-27T03:42:04.198Z,90.77
2023-03-27T03:43:04.306Z,90.77
2023-03-27T03:44:04.249Z,90.77
2023-03-27T03:45:04.182Z,90.66
2023-03-27T03:46:04.240Z,90.45
2023-03-27T03:47:04.163Z,90.45
2023-03-27T03:48:04.265Z,90.56
2023-03-27T03:49:04.125Z,90.66
2023-03-27T03:50:04.928Z,90.66
2023-03-27T03:51:04.196Z,90.91
2023-03-27T03:52:04.983Z,90.81
2023-03-27T03:53:04.109Z,91.12
2023-03-27T03:54:04.096Z,91.22
2023-03-27T03:55:04.091Z,91.02
2023-03-27T03:56:04.068Z,91.22
2023-03-27T03:57:04.062Z,91.12
2023-03-27T03:58:04.083Z,91.22
2023-03-27T03:59:04.124Z,91.12
2023-03-27T04:00:04.056Z,91.12
2023-03-27T04:01:04.020Z,91.02
2023-03-27T04:02:04.045Z,91.33
2023-03-27T04:03:04.172Z,91.64
2023-03-27T04:04:03.973Z,91.54
2023-03-27T04:05:08.632Z,91.54
2023-03-27T04:06:04.019Z,91.75
2023-03-27T04:07:03.934Z,91.64
2023-03-27T04:08:03.921Z,91.64
2023-03-27T04:09:03.893Z,91.64
2023-03-27T04:10:04.488Z,91.75
2023-03-27T04:11:03.955Z,91.64
2023-03-27T04:12:03.882Z,91.54
2023-03-27T04:13:03.899Z,91.39
2023-03-27T04:14:03.887Z,91.22
2023-03-27T04:15:03.824Z,91.22
2023-03-27T04:16:03.873Z,91.33
2023-03-27T04:17:03.842Z,91.33
2023-03-27T04:18:03.883Z,91.12
2023-03-27T04:19:03.805Z,91.22
2023-03-27T04:20:03.797Z,91.02
2023-03-27T04:21:04.505Z,91.02
2023-03-27T04:22:03.839Z,91.12
2023-03-27T04:23:03.739Z,91.22
2023-03-27T04:24:03.788Z,91.22
2023-03-27T04:25:03.719Z,90.91
2023-03-27T04:26:03.756Z,91.02
2023-03-27T04:27:03.761Z,91.22
2023-03-27T04:28:03.726Z,91.22
2023-03-27T04:29:03.693Z,91.64
2023-03-27T04:30:03.677Z,91.75
2023-03-27T04:31:03.717Z,91.64
2023-03-27T04:32:03.973Z,91.43
2023-03-27T04:33:03.659Z,91.54
2023-03-27T04:34:03.715Z,91.54
2023-03-27T04:35:03.634Z,91.43
2023-03-27T04:36:06.151Z,91.54
2023-03-27T04:37:03.593Z,91.64
2023-03-27T04:38:03.602Z,91.58
2023-03-27T04:39:03.586Z,91.75
2023-03-27T04:40:03.615Z,91.58
2023-03-27T04:41:03.575Z,91.64
2023-03-27T04:42:03.590Z,91.75
2023-03-27T04:43:03.607Z,91.64
2023-03-27T04:44:03.510Z,91.54
2023-03-27T04:45:03.520Z,91.43
2023-03-27T04:46:03.509Z,91.22
2023-03-27T04:47:03.555Z,91.47
2023-03-27T04:48:03.579Z,91.79
2023-03-27T04:49:03.502Z,91.79
2023-03-27T04:50:03.484Z,91.96
2023-03-27T04:51:03.440Z,91.64
2023-03-27T04:52:03.441Z,91.85
2023-03-27T04:53:03.435Z,91.75
2023-03-27T04:54:03.465Z,91.64
2023-03-27T04:55:03.390Z,91.64
2023-03-27T04:56:03.401Z,91.96
2023-03-27T04:57:03.499Z,91.96
2023-03-27T04:58:03.405Z,92.06
2023-03-27T04:59:03.380Z,92.06
2023-03-27T05:00:03.367Z,91.85
2023-03-27T05:01:03.371Z,91.75
2023-03-27T05:02:03.313Z,91.75
2023-03-27T05:03:03.436Z,91.64
2023-03-27T05:04:03.404Z,91.75
2023-03-27T05:05:03.400Z,91.75
2023-03-27T05:06:03.289Z,91.43
2023-03-27T05:07:03.283Z,91.54
2023-03-27T05:08:03.274Z,91.43
2023-03-27T05:09:03.269Z,91.54
2023-03-27T05:10:03.276Z,91.75
2023-03-27T05:11:03.248Z,91.64
2023-03-27T05:12:03.244Z,91.75
2023-03-27T05:13:03.186Z,91.75
2023-03-27T05:14:03.218Z,91.64
2023-03-27T05:15:03.189Z,91.75
2023-03-27T05:16:03.226Z,91.71
2023-03-27T05:17:03.157Z,91.81
2023-03-27T05:18:03.226Z,91.71
2023-03-27T05:19:03.145Z,91.71
2023-03-27T05:20:03.131Z,91.60
2023-03-27T05:21:03.099Z,91.50
2023-03-27T05:22:03.126Z,91.60
2023-03-27T05:23:03.104Z,91.60
2023-03-27T05:24:03.114Z,91.50
2023-03-27T05:25:03.089Z,91.46
2023-03-27T05:26:03.060Z,91.25
2023-03-27T05:27:03.023Z,91.14
2023-03-27T05:28:03.056Z,90.93
2023-03-27T05:29:02.997Z,90.72
2023-03-27T05:30:03.063Z,90.93
2023-03-27T05:31:03.046Z,90.93
2023-03-27T05:32:03.004Z,90.83
2023-03-27T05:33:03.022Z,90.93
2023-03-27T05:34:03.011Z,91.14
2023-03-27T05:35:03.016Z,91.25
2023-03-27T05:36:03.085Z,91.35
2023-03-27T05:37:02.921Z,91.35
2023-03-27T05:38:02.938Z,91.46
2023-03-27T05:39:02.904Z,91.41
2023-03-27T05:40:02.971Z,91.52
2023-03-27T05:41:02.898Z,91.62
2023-03-27T05:42:02.925Z,91.62
2023-03-27T05:43:02.862Z,91.62
2023-03-27T05:44:02.833Z,91.62
2023-03-27T05:45:02.819Z,91.72
2023-03-27T05:46:02.967Z,91.62
2023-03-27T05:47:02.816Z,91.62
2023-03-27T05:48:03.463Z,91.62
2023-03-27T05:49:02.816Z,91.41
2023-03-27T05:50:02.821Z,91.31
2023-03-27T05:51:02.823Z,91.16
2023-03-27T05:52:02.797Z,91.16
2023-03-27T05:53:02.770Z,91.06
2023-03-27T05:54:02.750Z,91.06
2023-03-27T05:55:02.724Z,90.95
2023-03-27T05:56:03.627Z,90.85
2023-03-27T05:57:02.744Z,90.75
2023-03-27T05:58:02.720Z,90.95
2023-03-27T05:59:02.699Z,90.85
2023-03-27T06:00:02.711Z,90.75
2023-03-27T06:01:02.709Z,90.60
2023-03-27T06:02:02.717Z,90.39
2023-03-27T06:03:02.882Z,90.39
2023-03-27T06:04:02.689Z,90.29
2023-03-27T06:05:02.598Z,90.39
2023-03-27T06:06:02.621Z,90.08
2023-03-27T06:07:02.599Z,89.98
2023-03-27T06:08:02.606Z,89.94
2023-03-27T06:09:02.589Z,89.83
2023-03-27T06:10:02.612Z,89.73
2023-03-27T06:11:02.545Z,89.73
2023-03-27T06:12:02.527Z,89.83
2023-03-27T06:13:02.601Z,89.83
2023-03-27T06:14:02.537Z,89.76
2023-03-27T06:15:02.535Z,89.73
2023-03-27T06:16:02.527Z,89.76
2023-03-27T06:17:02.470Z,89.76
2023-03-27T06:18:02.540Z,89.94
2023-03-27T06:19:02.460Z,89.83
2023-03-27T06:20:02.488Z,89.87
2023-03-27T06:21:02.462Z,89.98
2023-03-27T06:22:02.468Z,89.98
2023-03-27T06:23:02.432Z,90.08
2023-03-27T06:24:02.393Z,90.08
2023-03-27T06:25:02.372Z,89.98
2023-03-27T06:26:02.358Z,89.94
2023-03-27T06:27:02.353Z,89.83
2023-03-27T06:28:02.386Z,89.83
2023-03-27T06:29:02.443Z,89.52
2023-03-27T06:30:02.446Z,89.62
2023-03-27T06:31:02.311Z,89.52
2023-03-27T06:32:02.367Z,89.41
2023-03-27T06:33:02.305Z,89.27
2023-03-27T06:34:02.292Z,89.06
2023-03-27T06:35:02.382Z,88.96
2023-03-27T06:36:02.294Z,88.96
2023-03-27T06:37:02.248Z,89.06
2023-03-27T06:38:02.262Z,88.64
2023-03-27T06:39:02.273Z,88.81
2023-03-27T06:40:02.330Z,88.60
2023-03-27T06:41:02.261Z,88.60
2023-03-27T06:42:02.274Z,88.40
2023-03-27T06:43:02.202Z,88.40
2023-03-27T06:44:02.192Z,88.40
2023-03-27T06:45:02.201Z,88.15
2023-03-27T06:46:02.189Z,87.94
2023-03-27T06:47:02.176Z,87.63
2023-03-27T06:48:13.603Z,87.52
2023-03-27T06:49:02.281Z,87.52
2023-03-27T06:50:02.121Z,87.48
2023-03-27T06:51:02.136Z,87.11
2023-03-27T06:52:02.068Z,87.11
2023-03-27T06:53:03.043Z,87.38
2023-03-27T06:54:02.060Z,86.76
2023-03-27T06:55:02.075Z,86.76
2023-03-27T06:56:02.078Z,86.76
2023-03-27T06:57:02.075Z,86.65
2023-03-27T06:58:02.002Z,86.34
2023-03-27T06:59:02.018Z,86.24
2023-03-27T07:00:02.672Z,86.19
2023-03-27T07:01:01.976Z,85.99
2023-03-27T07:02:02.101Z,85.95
2023-03-27T07:03:01.969Z,85.47
2023-03-27T07:04:01.938Z,85.53
2023-03-27T07:05:05.284Z,85.43
2023-03-27T07:06:02.080Z,85.43
2023-03-27T07:07:01.896Z,85.02
2023-03-27T07:08:14.855Z,84.91
2023-03-27T07:09:01.886Z,85.02
2023-03-27T07:10:01.858Z,85.08
2023-03-27T07:11:11.654Z,84.91
2023-03-27T07:12:01.850Z,84.70
2023-03-27T07:13:01.831Z,84.70
2023-03-27T07:14:01.812Z,84.70
2023-03-27T07:15:01.807Z,84.91
2023-03-27T07:16:01.915Z,85.02
2023-03-27T07:17:01.805Z,85.22
2023-03-27T07:18:01.805Z,84.98
2023-03-27T07:19:02.533Z,84.46
2023-03-27T07:20:01.797Z,84.15
2023-03-27T07:21:01.782Z,84.21
2023-03-27T07:22:01.746Z,84.21
2023-03-27T07:23:01.726Z,84.11
2023-03-27T07:24:01.724Z,83.97
2023-03-27T07:25:01.704Z,83.34
2023-03-27T07:26:01.701Z,83.34
2023-03-27T07:27:01.716Z,83.24
2023-03-27T07:28:02.109Z,82.93
2023-03-27T07:29:01.663Z,82.51
2023-03-27T07:30:01.650Z,82.62
2023-03-27T07:31:01.633Z,82.72
2023-03-27T07:32:04.504Z,82.79
2023-03-27T07:33:01.733Z,82.58
2023-03-27T07:34:01.669Z,82.27
2023-03-27T07:35:01.598Z,82.03
2023-03-27T07:36:01.581Z,82.03
2023-03-27T07:37:01.598Z,81.40
2023-03-27T07:38:01.572Z,81.30
2023-03-27T07:39:01.551Z,81.51
2023-03-27T07:40:01.521Z,80.99
2023-03-27T07:41:01.520Z,80.99
2023-03-27T07:42:01.522Z,81.05
2023-03-27T07:43:01.498Z,81.16
2023-03-27T07:44:01.563Z,81.16
2023-03-27T07:45:04.026Z,81.02
2023-03-27T07:46:01.504Z,80.81
2023-03-27T07:47:01.472Z,80.08
2023-03-27T07:48:01.609Z,80.50
2023-03-27T07:49:01.432Z,80.81
2023-03-27T07:50:01.442Z,80.71
2023-03-27T07:52:01.413Z,80.57
2023-03-27T07:53:01.386Z,80.15
2023-03-27T07:54:01.375Z,79.53
2023-03-27T07:55:01.386Z,79.33
2023-03-27T07:56:01.348Z,79.33
2023-03-27T07:57:01.430Z,79.22
2023-03-27T07:58:03.312Z,79.53
2023-03-27T07:59:01.316Z,79.80
2023-03-27T08:00:01.300Z,79.49
2023-03-27T08:01:01.297Z,79.29
2023-03-27T08:02:01.306Z,79.25
2023-03-27T08:03:01.446Z,79.05
2023-03-27T08:04:01.334Z,78.63
2023-03-27T08:05:01.374Z,78.84
2023-03-27T08:06:01.293Z,78.74
2023-03-27T08:07:01.250Z,78.80
2023-03-27T08:08:01.218Z,78.28
2023-03-27T08:09:02.835Z,78.18
2023-03-27T08:10:01.199Z,77.67
2023-03-27T08:11:01.184Z,77.39
2023-03-27T08:12:01.192Z,77.29
2023-03-27T08:13:01.171Z,78.11
2023-03-27T08:14:01.141Z,78.08
2023-03-27T08:15:01.152Z,77.77
2023-03-27T08:16:01.135Z,77.22
2023-03-27T08:17:14.507Z,76.32
2023-03-27T08:18:01.201Z,76.01
2023-03-27T08:19:01.128Z,76.73
2023-03-27T08:20:01.077Z,76.12
2023-03-27T08:21:01.062Z,76.84
2023-03-27T08:22:01.073Z,77.53
2023-03-27T08:23:01.047Z,78.31
2023-03-27T08:24:01.031Z,76.87
2023-03-27T08:25:01.027Z,76.35
2023-03-27T08:26:01.014Z,76.67
2023-03-27T08:27:01.020Z,76.81
2023-03-27T08:28:00.981Z,77.32
2023-03-27T08:29:00.976Z,77.25
2023-03-27T08:30:00.965Z,77.56
2023-03-27T08:31:02.953Z,77.87
2023-03-27T08:32:01.516Z,78.08
2023-03-27T08:33:01.002Z,77.56
2023-03-27T08:34:00.919Z,76.73
2023-03-27T08:35:00.906Z,77.36
2023-03-27T08:36:00.941Z,77.25
2023-03-27T08:37:00.903Z,77.36
2023-03-27T08:38:00.865Z,78.70
2023-03-27T08:39:00.867Z,77.77
2023-03-27T08:40:00.840Z,77.67
2023-03-27T08:41:00.850Z,77.56
2023-03-27T08:42:00.845Z,77.36
2023-03-27T08:43:00.827Z,77.60
2023-03-27T08:44:00.806Z,78.18
2023-03-27T08:45:00.808Z,77.56
2023-03-27T08:46:00.875Z,76.53
2023-03-27T08:47:00.790Z,76.39
2023-03-27T08:48:00.802Z,77.08
2023-03-27T08:49:00.759Z,76.25
2023-03-27T08:50:00.740Z,75.70
2023-03-27T08:51:00.736Z,73.85
2023-03-27T08:52:00.745Z,73.43
2023-03-27T08:53:00.713Z,73.50
2023-03-27T08:54:00.706Z,72.47
2023-03-27T08:55:00.710Z,71.34
2023-03-27T08:56:00.696Z,71.06
2023-03-27T08:57:00.735Z,72.27
2023-03-27T08:58:00.642Z,72.67
2023-03-27T08:59:00.650Z,71.68
2023-03-27T09:00:00.645Z,71.68
2023-03-27T09:01:00.612Z,72.27
2023-03-27T09:02:00.633Z,71.61
2023-03-27T09:03:00.733Z,72.13
2023-03-27T09:04:00.706Z,72.03
2023-03-27T09:05:00.588Z,72.54
2023-03-27T09:06:00.560Z,72.23
2023-03-27T09:07:00.566Z,70.62
2023-03-27T09:08:00.547Z,71.47
2023-03-27T09:09:00.596Z,71.16
2023-03-27T09:10:00.522Z,71.78
2023-03-27T09:11:00.514Z,71.47
2023-03-27T09:12:00.522Z,71.47
2023-03-27T09:13:00.484Z,71.09
2023-03-27T09:14:00.482Z,71.99
2023-03-27T09:15:00.484Z,70.31
2023-03-27T09:16:00.657Z,70.41
2023-03-27T09:17:00.459Z,69.59
2023-03-27T09:18:00.467Z,70.00
2023-03-27T09:19:00.410Z,70.41
2023-03-27T09:20:00.395Z,69.59
2023-03-27T09:21:00.389Z,68.48
2023-03-27T09:22:00.400Z,69.10
2023-03-27T09:23:00.369Z,69.38
2023-03-27T09:24:00.359Z,69.38
2023-03-27T09:25:00.347Z,68.93
2023-03-27T09:26:00.335Z,67.25
2023-03-27T09:27:07.157Z,67.94
2023-03-27T09:28:00.309Z,66.47
2023-03-27T09:29:00.320Z,66.34
2023-03-27T09:30:04.909Z,65.41
2023-03-27T09:31:00.324Z,65.28
2023-03-27T09:32:00.277Z,64.36
2023-03-27T09:33:00.293Z,65.38
2023-03-27T09:34:00.239Z,66.54
2023-03-27T09:35:00.230Z,65.34
2023-03-27T09:36:00.557Z,66.74
2023-03-27T09:37:00.226Z,68.08
2023-03-27T09:38:00.257Z,68.21
2023-03-27T09:39:00.180Z,69.86
2023-03-27T09:40:00.222Z,68.52
2023-03-27T09:41:00.159Z,67.46
2023-03-27T09:42:00.165Z,65.37
2023-03-27T09:43:00.153Z,65.86
2023-03-27T09:44:00.120Z,65.75
2023-03-27T09:45:00.132Z,67.06
2023-03-27T09:46:00.132Z,68.67
2023-03-27T09:47:00.150Z,65.65
2023-03-27T09:48:00.111Z,65.50
2023-03-27T09:49:00.069Z,66.22
2023-03-27T09:50:00.097Z,67.66
2023-03-27T09:51:00.056Z,66.12
2023-03-27T09:52:00.100Z,67.18
2023-03-27T09:53:00.034Z,67.05
2023-03-27T09:54:00.009Z,66.19
2023-03-27T09:55:00.002Z,64.44
2023-03-27T09:56:02.389Z,66.06
2023-03-27T09:57:00.058Z,63.82
2023-03-27T09:57:59.966Z,64.96
2023-03-27T09:58:59.973Z,64.17
2023-03-27T09:59:59.935Z,64.86
2023-03-27T10:01:00.009Z,65.13
2023-03-27T10:01:59.969Z,64.75
2023-03-27T10:02:59.992Z,64.93
2023-03-27T10:04:00.008Z,64.28
2023-03-27T10:04:59.900Z,63.43
2023-03-27T10:05:59.885Z,63.25
2023-03-27T10:06:59.890Z,63.56
2023-03-27T10:07:59.862Z,62.30
2023-03-27T10:08:59.848Z,62.71
2023-03-27T10:09:59.829Z,62.06
2023-03-27T10:10:59.898Z,61.27
2023-03-27T10:11:59.840Z,60.89
2023-03-27T10:12:59.828Z,62.12
2023-03-27T10:13:59.830Z,62.58
2023-03-27T10:14:59.798Z,62.65
2023-03-27T10:15:59.765Z,63.17
2023-03-27T10:16:59.828Z,60.49
2023-03-27T10:17:59.886Z,61.80
2023-03-27T10:18:59.813Z,60.70
2023-03-27T10:19:59.715Z,61.11
2023-03-27T10:20:59.732Z,61.49
2023-03-27T10:21:59.709Z,59.16
2023-03-27T10:22:59.697Z,60.08
2023-03-27T10:23:59.688Z,58.44
2023-03-27T10:24:59.670Z,58.16
2023-03-27T10:25:59.647Z,58.26
2023-03-27T10:26:59.672Z,58.47
2023-03-27T10:27:59.637Z,58.23
2023-03-27T10:28:59.616Z,59.47
2023-03-27T10:29:59.615Z,58.51
2023-03-27T10:30:59.621Z,57.51
2023-03-27T10:31:59.630Z,57.10
2023-03-27T10:32:59.607Z,58.03
2023-03-27T10:33:59.554Z,58.64
2023-03-27T10:34:59.549Z,59.29
2023-03-27T10:35:59.629Z,57.06
2023-03-27T10:36:59.537Z,57.95
2023-03-27T10:37:59.514Z,57.62
2023-03-27T10:38:59.503Z,60.08
2023-03-27T10:39:59.492Z,57.51
2023-03-27T10:40:59.533Z,58.78
2023-03-27T10:41:59.495Z,58.78
2023-03-27T10:42:59.502Z,59.39
2023-03-27T10:43:59.460Z,57.57
2023-03-27T10:44:59.428Z,60.35
2023-03-27T10:45:59.499Z,60.24
2023-03-27T10:46:59.463Z,59.83
2023-03-27T10:47:59.438Z,61.47
2023-03-27T10:48:59.406Z,61.58
2023-03-27T10:49:59.378Z,59.86
2023-03-27T10:50:59.385Z,61.61
2023-03-27T10:51:59.385Z,62.84
2023-03-27T10:52:59.411Z,62.02
2023-03-27T10:53:59.417Z,62.63
2023-03-27T10:54:59.331Z,63.46
2023-03-27T10:55:59.376Z,63.18
2023-03-27T10:56:59.383Z,62.25
2023-03-27T10:57:59.305Z,63.18
2023-03-27T10:58:59.269Z,61.77
2023-03-27T10:59:59.264Z,63.21
2023-03-27T11:00:59.569Z,62.56
2023-03-27T11:01:59.302Z,63.31
2023-03-27T11:02:59.235Z,65.47
2023-03-27T11:03:59.269Z,65.65
2023-03-27T11:04:59.201Z,64.93
2023-03-27T11:05:59.206Z,66.99
2023-03-27T11:06:59.208Z,66.27
2023-03-27T11:07:59.170Z,65.68
2023-03-27T11:08:59.151Z,66.67
2023-03-27T11:09:59.193Z,65.86
2023-03-27T11:10:59.259Z,64.93
2023-03-27T11:11:59.155Z,67.19
2023-03-27T11:12:59.128Z,68.50
2023-03-27T11:13:59.105Z,67.71
2023-03-27T11:14:59.089Z,65.25
2023-03-27T11:15:59.128Z,65.86
2023-03-27T11:16:59.234Z,66.14
2023-03-27T11:17:59.160Z,65.39
2023-03-27T11:18:59.038Z,64.60
2023-03-27T11:19:59.074Z,65.53
2023-03-27T11:20:59.153Z,64.88
2023-03-27T11:21:59.025Z,65.47
2023-03-27T11:22:59.006Z,63.90
2023-03-27T11:23:58.995Z,64.10
2023-03-27T11:24:58.976Z,62.43
2023-03-27T11:25:58.961Z,60.61
2023-03-27T11:26:58.964Z,59.05
2023-03-27T11:27:58.939Z,60.17
2023-03-27T11:28:58.956Z,60.46
2023-03-27T11:29:58.938Z,60.22
2023-03-27T11:30:59.138Z,61.11
2023-03-27T11:31:58.987Z,57.92
2023-03-27T11:32:58.899Z,57.71
2023-03-27T11:33:58.882Z,56.79
2023-03-27T11:34:58.871Z,57.66
2023-03-27T11:35:58.881Z,59.94
2023-03-27T11:36:58.853Z,63.82
2023-03-27T11:37:58.837Z,68.88
2023-03-27T11:38:58.817Z,72.85
2023-03-27T11:39:58.809Z,74.46
2023-03-27T11:40:59.001Z,77.18
2023-03-27T11:41:58.816Z,76.94
2023-03-27T11:42:58.779Z,79.69
2023-03-27T11:43:58.760Z,81.42
2023-03-27T11:44:58.753Z,82.43
2023-03-27T11:45:58.777Z,84.58
2023-03-27T11:46:58.741Z,86.13
2023-03-27T11:47:58.754Z,87.37
2023-03-27T11:48:58.710Z,87.57
2023-03-27T11:49:58.695Z,87.54
2023-03-27T11:50:59.036Z,87.37
2023-03-27T11:51:58.686Z,87.30
2023-03-27T11:52:58.663Z,88.30
2023-03-27T11:53:58.667Z,88.78
2023-03-27T11:54:58.647Z,87.23
2023-03-27T11:55:58.630Z,88.46
2023-03-27T11:56:58.658Z,88.70
2023-03-27T11:57:58.627Z,88.14
2023-03-27T11:58:58.586Z,86.03
2023-03-27T11:59:58.592Z,85.72
2023-03-27T12:00:58.833Z,86.51
2023-03-27T12:01:58.641Z,86.47
2023-03-27T12:02:58.622Z,84.81
2023-03-27T12:03:58.674Z,84.30
2023-03-27T12:04:58.565Z,84.88
2023-03-27T12:05:58.521Z,83.13
2023-03-27T12:07:04.293Z,82.26
2023-03-27T12:07:58.492Z,82.95
2023-03-27T12:08:58.553Z,77.80
2023-03-27T12:09:58.465Z,78.41
2023-03-27T12:10:58.599Z,78.48
2023-03-27T12:11:58.479Z,77.04
2023-03-27T12:12:58.427Z,77.93
2023-03-27T12:14:02.046Z,76.86
2023-03-27T12:14:58.413Z,75.22
2023-03-27T12:15:58.405Z,74.36
2023-03-27T12:16:58.427Z,73.71
2023-03-27T12:17:58.472Z,70.56
2023-03-27T12:19:03.803Z,70.04
2023-03-27T12:19:58.358Z,68.40
2023-03-27T12:20:58.347Z,69.18
2023-03-27T12:21:58.349Z,70.01
2023-03-27T12:22:58.328Z,69.87
2023-03-27T12:23:58.322Z,67.51
2023-03-27T12:24:59.897Z,68.85
2023-03-27T12:25:58.284Z,67.20
2023-03-27T12:26:58.287Z,65.89
2023-03-27T12:27:58.262Z,68.23
2023-03-27T12:28:58.254Z,66.31
2023-03-27T12:29:58.254Z,65.38
2023-03-27T12:30:58.379Z,67.30
2023-03-27T12:31:58.315Z,66.76
2023-03-27T12:33:00.125Z,67.76
2023-03-27T12:33:58.190Z,66.73
2023-03-27T12:34:58.179Z,65.98
2023-03-27T12:35:58.209Z,66.56
2023-03-27T12:36:58.180Z,63.62
2023-03-27T12:37:58.152Z,63.17
2023-03-27T12:38:58.137Z,66.73
2023-03-27T12:39:58.122Z,66.60
2023-03-27T12:40:58.171Z,65.44
2023-03-27T12:41:58.134Z,63.69
2023-03-27T12:42:58.084Z,64.69
2023-03-27T12:43:58.094Z,63.87
2023-03-27T12:45:00.026Z,63.97
2023-03-27T12:45:58.123Z,63.59
2023-03-27T12:46:58.101Z,63.69
2023-03-27T12:47:58.051Z,65.03
2023-03-27T12:48:58.057Z,63.51
2023-03-27T12:49:58.021Z,63.85
2023-03-27T12:50:58.262Z,63.54
2023-03-27T12:51:58.031Z,65.50
2023-03-27T12:52:57.972Z,65.09